createdAt,value
2018-02-19T00:00:23.917Z,34.00
2018-02-19T00:02:52.195Z,38.67
2018-02-19T00:05:19.717Z,35.27
2018-02-19T00:07:47.326Z,40.33
2018-02-19T00:10:14.893Z,36.27
2018-02-19T00:12:42.409Z,33.27
2018-02-19T00:15:09.915Z,40.40
2018-02-19T00:17:37.431Z,36.43
2018-02-19T00:20:05.736Z,33.10
2018-02-19T00:22:33.239Z,39.00
2018-02-19T00:25:00.762Z,34.60
2018-02-19T00:27:28.296Z,35.47
2018-02-19T00:29:56.594Z,33.27
2018-02-19T00:32:24.225Z,35.10
2018-02-19T00:34:51.795Z,29.33
2018-02-19T00:37:19.674Z,37.50
2018-02-19T00:39:57.487Z,33.83
2018-02-19T00:42:25.232Z,29.50
2018-02-19T00:44:52.766Z,32.47
2018-02-19T00:47:21.185Z,34.33
2018-02-19T00:49:51.118Z,36.60
2018-02-19T00:52:18.961Z,30.27
2018-02-19T00:54:47.422Z,32.60
2018-02-19T00:57:17.378Z,32.00
2018-02-19T00:59:46.536Z,29.87
2018-02-19T01:02:15.108Z,35.67
2018-02-19T01:04:43.813Z,35.90
2018-02-19T01:07:13.004Z,34.60
2018-02-19T01:09:41.611Z,30.60
2018-02-19T01:12:10.430Z,39.30
2018-02-19T01:14:39.133Z,31.47
2018-02-19T01:17:08.264Z,29.20
2018-02-19T01:19:37.405Z,34.40
2018-02-19T01:22:06.761Z,32.37
2018-02-19T01:24:36.990Z,28.13
2018-02-19T01:27:05.171Z,31.30
2018-02-19T01:29:34.350Z,30.37
2018-02-19T01:32:02.266Z,31.63
2018-02-19T01:34:31.352Z,32.23
2018-02-19T01:37:00.295Z,32.20
2018-02-19T01:39:29.113Z,28.67
2018-02-19T01:41:58.781Z,31.07
2018-02-19T01:44:28.543Z,29.20
2018-02-19T01:46:56.887Z,28.97
2018-02-19T01:49:25.152Z,31.37
2018-02-19T01:51:53.545Z,26.00
2018-02-19T01:54:21.049Z,23.60
2018-02-19T01:56:48.556Z,27.43
2018-02-19T01:59:16.812Z,25.10
2018-02-19T02:01:45.093Z,31.47
2018-02-19T02:04:13.349Z,28.77
2018-02-19T02:06:40.963Z,29.23
2018-02-19T02:09:08.470Z,29.47
2018-02-19T02:11:36.762Z,26.40
2018-02-19T02:14:05.025Z,26.00
2018-02-19T02:16:33.319Z,23.87
2018-02-19T02:19:00.828Z,29.47
2018-02-19T02:21:28.437Z,32.93
2018-02-19T02:23:56.021Z,27.50
2018-02-19T02:26:23.518Z,25.47
2018-02-19T02:28:51.089Z,29.90
2018-02-19T02:31:18.554Z,25.43
2018-02-19T02:33:46.806Z,26.40
2018-02-19T02:36:14.406Z,26.43
2018-02-19T02:38:41.916Z,26.20
2018-02-19T02:41:09.436Z,29.20
2018-02-19T02:43:36.936Z,29.73
2018-02-19T02:46:04.456Z,27.33
2018-02-19T02:48:31.967Z,22.97
2018-02-19T02:51:00.242Z,27.83
2018-02-19T02:53:28.642Z,22.13
2018-02-19T02:55:56.203Z,23.63
2018-02-19T02:58:23.698Z,26.00
2018-02-19T03:00:51.209Z,28.53
2018-02-19T03:03:18.714Z,27.10
2018-02-19T03:05:46.230Z,22.90
2018-02-19T03:08:13.728Z,23.50
2018-02-19T03:10:41.235Z,26.47
2018-02-19T03:13:08.784Z,21.47
2018-02-19T03:15:36.313Z,25.93
2018-02-19T03:18:03.814Z,26.50
2018-02-19T03:20:31.307Z,25.13
2018-02-19T03:22:58.806Z,26.63
2018-02-19T03:25:27.082Z,29.37
2018-02-19T03:27:55.343Z,27.30
2018-02-19T03:30:23.623Z,24.33
2018-02-19T03:32:51.913Z,25.13
2018-02-19T03:35:19.425Z,24.10
2018-02-19T03:37:46.934Z,25.50
2018-02-19T03:40:14.451Z,24.30
2018-02-19T03:42:42.003Z,25.57
2018-02-19T03:45:09.638Z,25.53
2018-02-19T03:47:37.869Z,23.47
2018-02-19T03:50:05.429Z,25.70
2018-02-19T03:52:32.920Z,26.83
2018-02-19T03:55:00.449Z,26.10
2018-02-19T03:57:28.004Z,24.00
2018-02-19T03:59:55.491Z,22.40
2018-02-19T04:02:23.003Z,20.57
2018-02-19T04:04:51.392Z,23.80
2018-02-19T04:07:18.914Z,28.93
2018-02-19T04:09:46.504Z,26.30
2018-02-19T04:12:14.780Z,22.07
2018-02-19T04:14:42.288Z,24.50
2018-02-19T04:17:09.801Z,24.87
2018-02-19T04:19:37.320Z,25.03
2018-02-19T04:22:04.811Z,24.57
2018-02-19T04:24:32.371Z,24.90
2018-02-19T04:26:59.879Z,25.60
2018-02-19T04:29:27.478Z,28.27
2018-02-19T04:31:55.855Z,18.03
2018-02-19T04:34:24.113Z,19.87
2018-02-19T04:36:52.392Z,19.00
2018-02-19T04:39:20.647Z,17.10
2018-02-19T04:41:48.157Z,19.67
2018-02-19T04:44:16.553Z,17.67
2018-02-19T04:46:44.545Z,20.27
2018-02-19T04:49:12.082Z,23.13
2018-02-19T04:51:39.576Z,18.43
2018-02-19T04:54:07.170Z,17.90
2018-02-19T04:56:34.733Z,21.57
2018-02-19T04:59:02.235Z,21.67
2018-02-19T05:01:29.789Z,21.47
2018-02-19T05:03:57.379Z,21.03
2018-02-19T05:06:25.654Z,22.23
2018-02-19T05:08:53.915Z,18.43
2018-02-19T05:11:22.317Z,20.00
2018-02-19T05:13:49.863Z,19.70
2018-02-19T05:16:18.129Z,17.90
2018-02-19T05:18:46.519Z,16.97
2018-02-19T05:21:14.082Z,18.77
2018-02-19T05:23:41.601Z,21.93
2018-02-19T05:26:09.190Z,17.80
2018-02-19T05:28:36.747Z,15.87
2018-02-19T05:31:04.259Z,18.03
2018-02-19T05:33:31.753Z,17.27
2018-02-19T05:36:00.033Z,22.63
2018-02-19T05:38:28.319Z,20.27
2018-02-19T05:40:55.874Z,22.27
2018-02-19T05:43:23.378Z,21.57
2018-02-19T05:45:50.979Z,23.97
2018-02-19T05:48:19.247Z,22.43
2018-02-19T05:50:47.536Z,20.20
2018-02-19T05:53:15.087Z,22.37
2018-02-19T05:55:43.482Z,23.73
2018-02-19T05:58:10.995Z,21.47
2018-02-19T06:00:39.479Z,25.73
2018-02-19T06:03:06.987Z,22.57
2018-02-19T06:05:34.495Z,27.33
2018-02-19T06:08:02.082Z,21.83
2018-02-19T06:10:29.641Z,25.53
2018-02-19T06:12:57.219Z,21.30
2018-02-19T06:15:24.725Z,26.63
2018-02-19T06:17:53.733Z,27.37
2018-02-19T06:20:22.008Z,26.43
2018-02-19T06:22:50.264Z,26.07
2018-02-19T06:25:17.780Z,27.33
2018-02-19T06:27:45.268Z,22.37
2018-02-19T06:30:12.871Z,22.70
2018-02-19T06:32:40.363Z,28.73
2018-02-19T06:35:07.881Z,32.10
2018-02-19T06:37:35.407Z,25.63
2018-02-19T06:40:02.903Z,27.07
2018-02-19T06:42:30.405Z,26.80
2018-02-19T06:44:58.030Z,28.73
2018-02-19T06:47:25.527Z,30.77
2018-02-19T06:49:53.824Z,31.20
2018-02-19T06:52:22.095Z,28.80
2018-02-19T06:54:49.578Z,26.43
2018-02-19T06:57:17.097Z,28.97
2018-02-19T06:59:44.610Z,27.10
2018-02-19T07:02:12.112Z,35.10
2018-02-19T07:04:39.618Z,30.73
2018-02-19T07:07:07.157Z,28.87
2018-02-19T07:09:34.713Z,32.00
2018-02-19T07:12:02.225Z,28.47
2018-02-19T07:14:29.738Z,27.60
2018-02-19T07:16:57.259Z,31.97
2018-02-19T07:19:24.752Z,33.40
2018-02-19T07:21:52.251Z,33.70
2018-02-19T07:24:19.876Z,33.20
2018-02-19T07:26:47.435Z,29.27
2018-02-19T07:29:14.929Z,36.37
2018-02-19T07:31:42.448Z,31.03
2018-02-19T07:34:09.975Z,30.73
2018-02-19T07:36:38.267Z,35.13
2018-02-19T07:39:05.785Z,30.73
2018-02-19T07:41:33.375Z,34.57
2018-02-19T07:44:01.158Z,31.53
2018-02-19T07:46:28.659Z,33.87
2018-02-19T07:48:56.267Z,32.10
2018-02-19T07:51:23.767Z,32.23
2018-02-19T07:53:51.266Z,37.20
2018-02-19T07:56:18.770Z,32.17
2018-02-19T07:58:46.379Z,34.70
2018-02-19T08:01:14.762Z,37.20
2018-02-19T08:03:42.311Z,32.87
2018-02-19T08:06:10.584Z,32.63
2018-02-19T08:08:38.861Z,33.80
2018-02-19T08:11:07.120Z,38.63
2018-02-19T08:13:35.407Z,36.63
2018-02-19T08:16:03.657Z,36.37
2018-02-19T08:18:31.254Z,32.70
2018-02-19T08:20:58.764Z,32.40
2018-02-19T08:23:26.251Z,34.97
2018-02-19T08:25:54.642Z,29.70
2018-02-19T08:28:22.162Z,34.70
2018-02-19T08:30:50.447Z,31.63
2018-02-19T08:33:18.728Z,32.43
2018-02-19T08:35:47.009Z,35.83
2018-02-19T08:38:15.293Z,32.00
2018-02-19T08:40:42.791Z,29.80
2018-02-19T08:43:10.309Z,34.93
2018-02-19T08:45:37.833Z,33.50
2018-02-19T08:48:06.109Z,35.47
2018-02-19T08:50:33.695Z,31.43
2018-02-19T08:53:01.223Z,33.47
2018-02-19T08:55:28.746Z,33.00
2018-02-19T08:57:56.249Z,36.50
2018-02-19T09:00:24.536Z,38.80
2018-02-19T09:02:52.051Z,32.97
2018-02-19T09:05:19.559Z,33.20
2018-02-19T09:07:47.136Z,34.50
2018-02-19T09:10:14.667Z,29.60
2018-02-19T09:12:43.028Z,28.20
2018-02-19T09:15:11.328Z,27.83
2018-02-19T09:17:38.837Z,29.17
2018-02-19T09:20:06.370Z,24.97
2018-02-19T09:22:33.881Z,30.27
2018-02-19T09:25:02.146Z,29.50
2018-02-19T09:27:30.433Z,31.33
2018-02-19T09:29:58.702Z,29.47
2018-02-19T09:32:26.957Z,30.93
2018-02-19T09:34:54.470Z,26.83
2018-02-19T09:37:21.974Z,34.13
2018-02-19T09:39:49.484Z,32.23
2018-02-19T09:42:16.997Z,35.70
2018-02-19T09:44:45.251Z,34.20
2018-02-19T09:47:12.759Z,34.87
2018-02-19T09:49:40.261Z,31.03
2018-02-19T09:52:07.780Z,29.23
2018-02-19T09:54:35.294Z,29.27
2018-02-19T09:57:02.880Z,29.83
2018-02-19T09:59:30.393Z,29.73
2018-02-19T10:01:57.922Z,30.97
2018-02-19T10:04:25.437Z,26.17
2018-02-19T10:06:53.710Z,26.77
2018-02-19T10:09:21.972Z,26.40
2018-02-19T10:11:49.482Z,26.47
2018-02-19T10:14:16.987Z,26.00
2018-02-19T10:16:44.596Z,25.50
2018-02-19T10:19:12.087Z,23.70
2018-02-19T10:21:39.579Z,20.70
2018-02-19T10:24:07.094Z,21.37
2018-02-19T10:26:34.706Z,29.03
2018-02-19T10:29:02.260Z,24.97
2018-02-19T10:31:29.768Z,19.70
2018-02-19T10:33:57.261Z,23.83
2018-02-19T10:36:25.532Z,26.43
2018-02-19T10:38:53.816Z,26.13
2018-02-19T10:41:21.304Z,26.13
2018-02-19T10:43:48.800Z,23.63
2018-02-19T10:46:16.388Z,24.17
2018-02-19T10:48:44.649Z,23.70
2018-02-19T10:51:12.936Z,22.00
2018-02-19T10:53:40.498Z,25.10
2018-02-19T10:56:08.010Z,20.97
2018-02-19T10:58:35.511Z,25.83
2018-02-19T11:01:03.081Z,23.37
2018-02-19T11:03:30.613Z,26.10
2018-02-19T11:05:58.877Z,20.43
2018-02-19T11:08:27.145Z,28.13
2018-02-19T11:10:54.645Z,24.10
2018-02-19T11:13:22.179Z,27.90
2018-02-19T11:15:50.464Z,22.37
2018-02-19T11:18:18.593Z,24.27
2018-02-19T11:20:46.221Z,26.40
2018-02-19T11:23:13.749Z,22.30
2018-02-19T11:25:41.235Z,26.43
2018-02-19T11:28:08.870Z,28.87
2018-02-19T11:30:36.373Z,27.60
2018-02-19T11:33:03.860Z,26.37
2018-02-19T11:35:32.146Z,29.53
2018-02-19T11:38:00.404Z,25.03
2018-02-19T11:40:28.691Z,33.17
2018-02-19T11:42:57.181Z,31.50
2018-02-19T11:45:25.439Z,34.80
2018-02-19T11:47:53.724Z,37.67
2018-02-19T11:50:22.007Z,35.57
2018-02-19T11:52:49.505Z,38.00
2018-02-19T11:55:17.017Z,37.03
2018-02-19T11:57:44.576Z,37.50
2018-02-19T12:00:12.080Z,34.67
2018-02-19T12:02:39.579Z,42.30
2018-02-19T12:05:07.973Z,38.23
2018-02-19T12:07:35.468Z,38.67
2018-02-19T12:10:02.983Z,37.17
2018-02-19T12:12:30.497Z,35.53
2018-02-19T12:14:57.987Z,43.13
2018-02-19T12:17:26.289Z,40.83
2018-02-19T12:19:53.782Z,37.20
2018-02-19T12:22:21.384Z,37.50
2018-02-19T12:24:48.906Z,36.63
2018-02-19T12:27:16.400Z,35.93
2018-02-19T12:29:43.899Z,37.47
2018-02-19T12:32:11.411Z,36.97
2018-02-19T12:34:38.967Z,35.57
2018-02-19T12:37:06.497Z,38.97
2018-02-19T12:39:34.054Z,41.90
2018-02-19T12:42:01.519Z,35.60
2018-02-19T12:44:29.829Z,40.87
2018-02-19T12:46:57.341Z,40.70
2018-02-19T12:49:24.834Z,36.53
2018-02-19T12:51:52.396Z,40.73
2018-02-19T12:54:19.896Z,39.10
2018-02-19T12:56:47.505Z,38.93
2018-02-19T12:59:15.036Z,33.23
2018-02-19T13:01:43.318Z,36.13
2018-02-19T13:04:11.612Z,35.30
2018-02-19T13:06:39.166Z,39.40
2018-02-19T13:09:06.688Z,37.97
2018-02-19T13:11:34.189Z,32.43
2018-02-19T13:14:01.713Z,37.53
2018-02-19T13:16:29.997Z,38.33
2018-02-19T13:18:58.263Z,37.13
2018-02-19T13:21:26.543Z,39.53
2018-02-19T13:23:54.807Z,40.37
2018-02-19T13:26:23.101Z,41.60
2018-02-19T13:28:51.377Z,35.20
2018-02-19T13:31:19.655Z,35.43
2018-02-19T13:33:47.184Z,36.27
2018-02-19T13:36:14.691Z,35.13
2018-02-19T13:38:42.198Z,39.87
2018-02-19T13:41:09.793Z,39.03
2018-02-19T13:43:39.823Z,34.27
2018-02-19T13:46:07.329Z,38.90
2018-02-19T13:48:34.836Z,35.37
2018-02-19T13:51:02.331Z,34.83
2018-02-19T13:53:29.831Z,36.73
2018-02-19T13:55:57.391Z,33.87
2018-02-19T13:58:24.949Z,39.13
2018-02-19T14:00:52.452Z,38.30
2018-02-19T14:03:20.002Z,34.37
2018-02-19T14:05:47.625Z,36.20
2018-02-19T14:08:15.127Z,35.37
2018-02-19T14:10:42.657Z,33.13
2018-02-19T14:13:10.184Z,33.37
2018-02-19T14:15:38.449Z,35.70
2018-02-19T14:18:06.758Z,35.63
2018-02-19T14:20:34.420Z,32.27
2018-02-19T14:23:01.940Z,37.83
2018-02-19T14:25:30.234Z,43.03
2018-02-19T14:27:57.753Z,38.33
2018-02-19T14:30:25.242Z,31.60
2018-02-19T14:32:53.495Z,36.10
2018-02-19T14:35:21.014Z,31.50
2018-02-19T14:37:48.502Z,30.07
2018-02-19T14:40:16.021Z,36.53
2018-02-19T14:42:43.610Z,35.17
2018-02-19T14:45:11.126Z,37.07
2018-02-19T14:47:38.631Z,35.10
2018-02-19T14:50:06.212Z,31.90
2018-02-19T14:52:34.608Z,29.43
2018-02-19T14:55:02.112Z,35.80
2018-02-19T14:57:29.713Z,35.30
2018-02-19T14:59:57.223Z,29.00
2018-02-19T15:02:24.730Z,33.33
2018-02-19T15:04:52.254Z,31.27
2018-02-19T15:07:19.743Z,35.40
2018-02-19T15:09:47.263Z,32.30
2018-02-19T15:12:14.775Z,36.90
2018-02-19T15:14:42.313Z,36.33
2018-02-19T15:17:09.806Z,33.37
2018-02-19T15:19:37.304Z,36.23
2018-02-19T15:22:05.581Z,39.57
2018-02-19T15:24:33.848Z,38.83
2018-02-19T15:27:01.347Z,31.10
2018-02-19T15:29:28.844Z,31.80
2018-02-19T15:31:56.331Z,32.67
2018-02-19T15:34:24.607Z,34.80
2018-02-19T15:36:53.425Z,36.37
2018-02-19T15:39:20.937Z,33.90
2018-02-19T15:41:49.197Z,35.53
2018-02-19T15:44:16.711Z,36.37
2018-02-19T15:46:44.300Z,33.47
2018-02-19T15:49:11.796Z,36.67
2018-02-19T15:51:40.092Z,38.07
2018-02-19T15:54:07.725Z,33.53
2018-02-19T15:56:35.994Z,33.17
2018-02-19T15:59:04.308Z,30.87
2018-02-19T16:01:31.814Z,33.13
2018-02-19T16:03:59.425Z,31.40
2018-02-19T16:06:26.952Z,36.87
2018-02-19T16:08:55.227Z,33.63
2018-02-19T16:11:23.518Z,32.87
2018-02-19T16:13:51.025Z,33.10
2018-02-19T16:16:18.551Z,31.93
2018-02-19T16:18:46.109Z,34.73
2018-02-19T16:21:13.607Z,35.87
2018-02-19T16:23:41.206Z,36.33
2018-02-19T16:26:08.703Z,36.57
2018-02-19T16:28:36.230Z,36.00
2018-02-19T16:31:03.729Z,31.20
2018-02-19T16:33:31.225Z,33.30
2018-02-19T16:35:58.777Z,38.00
2018-02-19T16:38:27.066Z,34.83
2018-02-19T16:40:54.641Z,31.13
2018-02-19T16:43:22.161Z,36.57
2018-02-19T16:45:50.416Z,35.03
2018-02-19T16:48:17.911Z,32.80
2018-02-19T16:50:45.454Z,38.00
2018-02-19T16:53:13.022Z,42.17
2018-02-19T16:55:40.575Z,41.53
2018-02-19T16:58:08.117Z,36.03
2018-02-19T17:00:36.428Z,33.97
2018-02-19T17:03:03.911Z,34.43
2018-02-19T17:05:31.443Z,33.60
2018-02-19T17:07:58.973Z,37.50
2018-02-19T17:10:27.235Z,36.07
2018-02-19T17:12:55.505Z,39.50
2018-02-19T17:15:23.810Z,40.30
2018-02-19T17:17:51.303Z,33.33
2018-02-19T17:20:19.046Z,34.77
2018-02-19T17:22:46.703Z,35.80
2018-02-19T17:25:14.242Z,36.43
2018-02-19T17:27:41.800Z,33.20
2018-02-19T17:30:09.359Z,37.37
2018-02-19T17:32:36.889Z,37.27
2018-02-19T17:35:05.777Z,37.00
2018-02-19T17:37:34.035Z,38.03
2018-02-19T17:40:01.562Z,37.13
2018-02-19T17:42:29.075Z,34.80
2018-02-19T17:44:57.367Z,36.63
2018-02-19T17:47:24.881Z,36.83
2018-02-19T17:49:52.372Z,39.70
2018-02-19T17:52:20.701Z,34.87
2018-02-19T17:54:48.214Z,35.30
2018-02-19T17:57:15.716Z,35.67
2018-02-19T17:59:43.237Z,36.23
2018-02-19T18:02:10.788Z,33.00
2018-02-19T18:04:38.279Z,32.20
2018-02-19T18:07:05.794Z,40.20
2018-02-19T18:09:33.373Z,34.97
2018-02-19T18:12:00.912Z,34.17
2018-02-19T18:14:28.435Z,32.00
2018-02-19T18:16:55.957Z,33.87
2018-02-19T18:19:23.452Z,33.00
2018-02-19T18:21:50.972Z,33.97
2018-02-19T18:24:18.461Z,30.83
2018-02-19T18:26:45.956Z,32.53
2018-02-19T18:29:13.471Z,34.83
2018-02-19T18:31:41.086Z,33.10
2018-02-19T18:34:08.606Z,38.53
2018-02-19T18:36:36.874Z,35.30
2018-02-19T18:39:05.136Z,37.60
2018-02-19T18:41:32.636Z,35.43
2018-02-19T18:44:00.150Z,35.70
2018-02-19T18:46:27.679Z,37.97
2018-02-19T18:48:55.191Z,38.97
2018-02-19T18:51:23.468Z,32.50
2018-02-19T18:53:51.741Z,33.70
2018-02-19T18:56:20.023Z,41.13
2018-02-19T18:58:47.545Z,36.83
2018-02-19T19:01:15.073Z,40.90
2018-02-19T19:03:42.595Z,37.07
2018-02-19T19:06:10.105Z,39.30
2018-02-19T19:08:49.524Z,35.57
2018-02-19T19:11:17.029Z,36.70
2018-02-19T19:13:45.326Z,36.00
2018-02-19T19:16:12.826Z,34.50
2018-02-19T19:18:40.465Z,38.10
2018-02-19T19:21:07.976Z,31.20
2018-02-19T19:23:36.239Z,36.43
2018-02-19T19:26:03.762Z,38.20
2018-02-19T19:28:31.271Z,31.83
2018-02-19T19:30:59.527Z,41.23
2018-02-19T19:33:27.050Z,36.50
2018-02-19T19:35:54.567Z,36.40
2018-02-19T19:38:22.528Z,31.87
2018-02-19T19:40:50.088Z,35.43
2018-02-19T19:43:18.378Z,32.33
2018-02-19T19:45:45.928Z,31.73
2018-02-19T19:48:13.482Z,35.10
2018-02-19T19:50:41.061Z,37.73
2018-02-19T19:53:08.562Z,35.40
2018-02-19T19:55:36.064Z,33.53
2018-02-19T19:58:03.582Z,34.83
2018-02-19T20:00:31.092Z,40.63
2018-02-19T20:02:58.598Z,38.03
2018-02-19T20:05:26.125Z,37.27
2018-02-19T20:07:53.744Z,37.10
2018-02-19T20:10:21.256Z,39.77
2018-02-19T20:12:48.781Z,35.43
2018-02-19T20:15:16.289Z,40.97
2018-02-19T20:17:44.600Z,37.67
2018-02-19T20:20:12.140Z,41.93
2018-02-19T20:22:40.544Z,37.97
2018-02-19T20:25:08.074Z,34.43
2018-02-19T20:27:35.571Z,30.70
2018-02-19T20:30:03.068Z,32.73
2018-02-19T20:32:30.573Z,36.57
2018-02-19T20:34:58.080Z,33.20
2018-02-19T20:37:26.086Z,34.03
2018-02-19T20:39:54.779Z,34.67
2018-02-19T20:42:33.042Z,34.23
2018-02-19T20:45:01.311Z,37.03
2018-02-19T20:47:29.826Z,38.90
2018-02-19T20:49:57.369Z,35.97
2018-02-19T20:52:24.936Z,39.73
2018-02-19T20:55:03.366Z,37.00
2018-02-19T20:57:31.202Z,37.60
2018-02-19T20:59:58.773Z,37.70
2018-02-19T21:02:26.334Z,36.50
2018-02-19T21:04:53.843Z,35.57
2018-02-19T21:07:21.437Z,38.73
2018-02-19T21:09:48.961Z,39.13
2018-02-19T21:12:17.568Z,37.53
2018-02-19T21:14:45.875Z,39.67
2018-02-19T21:17:13.393Z,38.37
2018-02-19T21:19:41.663Z,38.13
2018-02-19T21:22:09.957Z,37.63
2018-02-19T21:24:37.455Z,39.97
2018-02-19T21:27:04.956Z,38.57
2018-02-19T21:29:33.236Z,42.20
2018-02-19T21:32:00.733Z,33.60
2018-02-19T21:34:28.262Z,42.47
2018-02-19T21:36:55.790Z,38.87
2018-02-19T21:39:23.295Z,38.97
2018-02-19T21:41:50.837Z,35.47
2018-02-19T21:44:18.342Z,41.90
2018-02-19T21:46:46.653Z,45.50
2018-02-19T21:49:14.943Z,40.80
2018-02-19T21:51:42.455Z,41.70
2018-02-19T21:54:09.969Z,42.20
2018-02-19T21:56:37.498Z,42.73
2018-02-19T21:59:05.809Z,44.57
2018-02-19T22:01:33.307Z,43.67
2018-02-19T22:04:00.816Z,46.33
2018-02-19T22:06:28.333Z,39.07
2018-02-19T22:08:56.595Z,46.40
2018-02-19T22:11:24.245Z,42.10
2018-02-19T22:13:52.239Z,42.50
2018-02-19T22:16:32.031Z,42.50
2018-02-19T22:19:00.533Z,44.53
2018-02-19T22:21:29.288Z,38.37
2018-02-19T22:23:57.091Z,41.87
2018-02-19T22:26:24.829Z,42.13
2018-02-19T22:28:53.360Z,39.53
2018-02-19T22:31:22.066Z,42.73
2018-02-19T22:33:49.905Z,44.13
2018-02-19T22:36:17.566Z,37.67
2018-02-19T22:38:46.987Z,40.23
2018-02-19T22:41:15.826Z,37.53
2018-02-19T22:43:44.257Z,41.03
2018-02-19T22:46:12.916Z,39.53
2018-02-19T22:48:51.931Z,39.90
2018-02-19T22:51:20.099Z,40.57
2018-02-19T22:53:48.321Z,44.70
2018-02-19T22:56:16.773Z,43.93
2018-02-19T22:58:45.180Z,43.00
2018-02-19T23:01:13.143Z,44.70
2018-02-19T23:03:41.354Z,41.90
2018-02-19T23:06:20.235Z,45.17
2018-02-19T23:08:48.382Z,45.77
2018-02-19T23:11:16.715Z,46.10
2018-02-19T23:13:46.179Z,40.53
2018-02-19T23:16:13.747Z,45.73
2018-02-19T23:18:41.635Z,52.03
2018-02-19T23:21:09.916Z,46.63
2018-02-19T23:23:38.181Z,46.80
2018-02-19T23:26:05.721Z,51.30
2018-02-19T23:28:33.231Z,45.13
2018-02-19T23:31:00.720Z,52.37
2018-02-19T23:33:28.345Z,51.93
2018-02-19T23:35:55.858Z,47.83
2018-02-19T23:38:23.464Z,48.53
2018-02-19T23:40:50.971Z,50.93
2018-02-19T23:43:18.481Z,51.87
2018-02-19T23:45:45.997Z,43.90
2018-02-19T23:48:13.503Z,46.87
2018-02-19T23:50:41.017Z,46.50
2018-02-19T23:53:09.303Z,42.67
2018-02-19T23:55:37.583Z,41.63
2018-02-19T23:58:05.849Z,40.27
